createdAt,value
2019-03-28T00:00:14.139Z,13.03
2019-03-28T00:00:53.224Z,14.07
2019-03-28T00:01:27.807Z,14.05
2019-03-28T00:02:02.648Z,13.35
2019-03-28T00:02:37.232Z,13.90
2019-03-28T00:03:11.899Z,13.88
2019-03-28T00:03:46.493Z,12.20
2019-03-28T00:04:20.988Z,12.68
2019-03-28T00:04:55.762Z,12.55
2019-03-28T00:05:30.301Z,11.90
2019-03-28T00:06:04.979Z,11.63
2019-03-28T00:06:39.649Z,14.20
2019-03-28T00:07:14.273Z,13.03
2019-03-28T00:07:48.776Z,11.48
2019-03-28T00:08:23.268Z,12.98
2019-03-28T00:08:57.780Z,12.00
2019-03-28T00:09:32.303Z,12.80
2019-03-28T00:10:07.043Z,12.78
2019-03-28T00:10:41.537Z,11.93
2019-03-28T00:11:16.044Z,13.38
2019-03-28T00:11:50.562Z,11.93
2019-03-28T00:12:25.212Z,11.95
2019-03-28T00:12:59.784Z,12.40
2019-03-28T00:13:34.283Z,12.00
2019-03-28T00:14:08.800Z,12.30
2019-03-28T00:14:43.385Z,13.65
2019-03-28T00:15:17.929Z,12.03
2019-03-28T00:15:52.571Z,13.10
2019-03-28T00:16:27.142Z,12.45
2019-03-28T00:17:01.664Z,13.80
2019-03-28T00:17:36.410Z,12.33
2019-03-28T00:18:11.959Z,11.10
2019-03-28T00:18:46.459Z,12.50
2019-03-28T00:19:20.967Z,12.55
2019-03-28T00:19:55.486Z,14.07
2019-03-28T00:20:29.985Z,13.28
2019-03-28T00:21:04.663Z,12.85
2019-03-28T00:21:39.261Z,14.05
2019-03-28T00:22:15.485Z,13.45
2019-03-28T00:22:51.636Z,13.32
2019-03-28T00:23:30.716Z,12.85
2019-03-28T00:24:06.843Z,11.90
2019-03-28T00:24:46.121Z,13.35
2019-03-28T00:25:21.599Z,12.25
2019-03-28T00:25:56.123Z,12.88
2019-03-28T00:26:31.975Z,13.93
2019-03-28T00:27:06.675Z,12.70
2019-03-28T00:27:41.263Z,11.55
2019-03-28T00:28:15.842Z,12.82
2019-03-28T00:28:50.392Z,12.37
2019-03-28T00:29:24.909Z,12.65
2019-03-28T00:29:59.410Z,13.00
2019-03-28T00:30:33.912Z,12.60
2019-03-28T00:31:08.416Z,14.10
2019-03-28T00:31:42.993Z,12.93
2019-03-28T00:32:17.488Z,11.73
2019-03-28T00:32:52.398Z,12.63
2019-03-28T00:33:27.069Z,14.13
2019-03-28T00:34:01.763Z,14.20
2019-03-28T00:34:36.341Z,12.80
2019-03-28T00:35:11.177Z,13.10
2019-03-28T00:35:45.690Z,13.15
2019-03-28T00:36:20.283Z,12.93
2019-03-28T00:36:54.836Z,13.28
2019-03-28T00:37:29.417Z,13.20
2019-03-28T00:38:03.930Z,12.65
2019-03-28T00:38:38.535Z,12.60
2019-03-28T00:39:13.128Z,11.48
2019-03-28T00:39:47.772Z,12.93
2019-03-28T00:40:22.278Z,14.43
2019-03-28T00:40:57.085Z,13.40
2019-03-28T00:41:31.597Z,12.25
2019-03-28T00:42:06.106Z,12.73
2019-03-28T00:42:40.609Z,12.73
2019-03-28T00:43:15.204Z,12.35
2019-03-28T00:43:49.703Z,13.88
2019-03-28T00:44:24.361Z,13.38
2019-03-28T00:44:58.880Z,11.57
2019-03-28T00:45:33.460Z,12.65
2019-03-28T00:46:08.041Z,12.73
2019-03-28T00:46:42.554Z,11.40
2019-03-28T00:47:17.121Z,13.72
2019-03-28T00:47:51.643Z,13.38
2019-03-28T00:48:26.220Z,14.28
2019-03-28T00:49:00.730Z,12.90
2019-03-28T00:49:35.397Z,12.93
2019-03-28T00:50:10.489Z,13.53
2019-03-28T00:50:45.006Z,13.53
2019-03-28T00:51:19.499Z,13.13
2019-03-28T00:51:54.024Z,13.68
2019-03-28T00:52:28.615Z,13.28
2019-03-28T00:53:03.176Z,12.10
2019-03-28T00:53:37.728Z,12.65
2019-03-28T00:54:12.232Z,13.53
2019-03-28T00:54:46.732Z,13.83
2019-03-28T00:55:21.293Z,13.75
2019-03-28T00:55:55.794Z,14.55
2019-03-28T00:56:38.415Z,12.90
2019-03-28T00:57:06.497Z,13.48
2019-03-28T00:57:41.029Z,13.90
2019-03-28T00:58:15.841Z,14.23
2019-03-28T00:58:50.760Z,11.80
2019-03-28T00:59:25.274Z,12.55
2019-03-28T00:59:59.860Z,13.90
2019-03-28T01:00:34.537Z,13.43
2019-03-28T01:01:09.037Z,14.45
2019-03-28T01:01:43.533Z,13.35
2019-03-28T01:02:18.064Z,12.88
2019-03-28T01:02:52.654Z,12.90
2019-03-28T01:03:27.281Z,14.15
2019-03-28T01:04:02.282Z,12.82
2019-03-28T01:04:37.227Z,12.53
2019-03-28T01:05:11.986Z,13.43
2019-03-28T01:05:46.554Z,12.55
2019-03-28T01:06:21.145Z,13.10
2019-03-28T01:06:55.878Z,12.93
2019-03-28T01:07:30.425Z,12.28
2019-03-28T01:08:05.012Z,13.70
2019-03-28T01:08:39.508Z,13.30
2019-03-28T01:09:14.071Z,13.05
2019-03-28T01:09:48.582Z,13.18
2019-03-28T01:10:23.097Z,12.75
2019-03-28T01:10:57.657Z,12.63
2019-03-28T01:11:32.169Z,12.60
2019-03-28T01:12:07.106Z,12.30
2019-03-28T01:12:41.628Z,12.35
2019-03-28T01:13:16.265Z,12.13
2019-03-28T01:13:50.884Z,13.90
2019-03-28T01:14:25.420Z,13.20
2019-03-28T01:14:59.996Z,12.70
2019-03-28T01:15:34.526Z,13.85
2019-03-28T01:16:09.025Z,12.43
2019-03-28T01:16:43.555Z,12.23
2019-03-28T01:17:18.134Z,13.83
2019-03-28T01:17:52.700Z,12.25
2019-03-28T01:18:27.392Z,12.03
2019-03-28T01:19:01.987Z,10.95
2019-03-28T01:19:36.792Z,13.53
2019-03-28T01:20:11.473Z,12.30
2019-03-28T01:20:45.980Z,12.30
2019-03-28T01:21:20.564Z,13.62
2019-03-28T01:21:55.144Z,12.90
2019-03-28T01:22:29.727Z,13.32
2019-03-28T01:23:04.290Z,12.70
2019-03-28T01:23:38.800Z,13.55
2019-03-28T01:24:13.377Z,13.10
2019-03-28T01:24:47.910Z,12.45
2019-03-28T01:25:22.477Z,12.73
2019-03-28T01:25:57.406Z,13.08
2019-03-28T01:26:31.923Z,12.82
2019-03-28T01:27:06.744Z,12.28
2019-03-28T01:27:41.553Z,13.25
2019-03-28T01:28:16.213Z,12.50
2019-03-28T01:28:50.934Z,13.20
2019-03-28T01:29:25.508Z,13.70
2019-03-28T01:30:00.167Z,12.05
2019-03-28T01:30:34.699Z,12.58
2019-03-28T01:31:09.266Z,12.50
2019-03-28T01:31:43.763Z,13.48
2019-03-28T01:32:18.269Z,12.18
2019-03-28T01:32:53.205Z,12.13
2019-03-28T01:33:27.897Z,12.80
2019-03-28T01:34:02.414Z,13.32
2019-03-28T01:34:36.925Z,12.88
2019-03-28T01:35:11.499Z,12.40
2019-03-28T01:35:46.078Z,13.03
2019-03-28T01:36:20.573Z,13.48
2019-03-28T01:36:55.060Z,12.00
2019-03-28T01:37:29.580Z,13.15
2019-03-28T01:38:04.249Z,13.95
2019-03-28T01:38:38.787Z,13.00
2019-03-28T01:39:13.288Z,11.20
2019-03-28T01:39:47.808Z,12.40
2019-03-28T01:40:22.385Z,13.70
2019-03-28T01:40:56.875Z,13.08
2019-03-28T01:41:31.391Z,12.90
2019-03-28T01:42:06.212Z,13.43
2019-03-28T01:42:40.883Z,13.75
2019-03-28T01:43:15.443Z,13.08
2019-03-28T01:43:49.950Z,13.30
2019-03-28T01:44:24.505Z,12.47
2019-03-28T01:44:59.086Z,13.60
2019-03-28T01:45:33.934Z,11.97
2019-03-28T01:46:08.430Z,11.78
2019-03-28T01:46:42.943Z,12.73
2019-03-28T01:47:18.066Z,12.45
2019-03-28T01:47:52.724Z,12.70
2019-03-28T01:48:27.247Z,14.68
2019-03-28T01:49:03.710Z,13.30
2019-03-28T01:49:38.045Z,12.68
2019-03-28T01:50:12.610Z,11.93
2019-03-28T01:50:47.130Z,13.55
2019-03-28T01:51:21.629Z,15.93
2019-03-28T01:51:56.251Z,13.65
2019-03-28T01:52:31.041Z,12.60
2019-03-28T01:53:05.533Z,12.25
2019-03-28T01:53:40.042Z,12.25
2019-03-28T01:54:14.539Z,12.88
2019-03-28T01:54:49.028Z,13.50
2019-03-28T01:55:23.558Z,12.30
2019-03-28T01:55:58.113Z,12.33
2019-03-28T01:56:32.792Z,13.58
2019-03-28T01:57:11.305Z,11.75
2019-03-28T01:57:43.585Z,12.55
2019-03-28T01:58:18.105Z,12.15
2019-03-28T01:58:52.656Z,12.25
2019-03-28T01:59:27.227Z,14.07
2019-03-28T02:00:01.777Z,12.75
2019-03-28T02:00:36.271Z,13.35
2019-03-28T02:01:10.775Z,13.48
2019-03-28T02:01:45.306Z,14.47
2019-03-28T02:02:20.209Z,12.15
2019-03-28T02:02:54.829Z,12.85
2019-03-28T02:03:29.326Z,13.32
2019-03-28T02:04:03.896Z,12.95
2019-03-28T02:04:38.397Z,13.88
2019-03-28T02:05:12.978Z,12.82
2019-03-28T02:05:47.485Z,12.18
2019-03-28T02:06:22.062Z,12.13
2019-03-28T02:06:56.573Z,13.05
2019-03-28T02:07:31.116Z,13.15
2019-03-28T02:08:05.617Z,12.55
2019-03-28T02:08:41.188Z,13.68
2019-03-28T02:09:15.806Z,12.78
2019-03-28T02:09:51.969Z,13.50
2019-03-28T02:10:26.441Z,13.13
2019-03-28T02:11:00.949Z,12.30
2019-03-28T02:11:35.540Z,11.93
2019-03-28T02:12:10.049Z,11.88
2019-03-28T02:12:44.620Z,11.83
2019-03-28T02:13:19.137Z,12.43
2019-03-28T02:13:53.722Z,12.80
2019-03-28T02:14:28.222Z,13.55
2019-03-28T02:15:02.743Z,12.58
2019-03-28T02:15:37.330Z,12.88
2019-03-28T02:16:11.905Z,12.58
2019-03-28T02:16:47.094Z,12.10
2019-03-28T02:17:22.762Z,11.97
2019-03-28T02:17:57.297Z,13.95
2019-03-28T02:18:31.916Z,12.55
2019-03-28T02:19:06.426Z,12.23
2019-03-28T02:19:41.038Z,13.48
2019-03-28T02:20:15.846Z,12.85
2019-03-28T02:20:50.343Z,11.60
2019-03-28T02:21:24.839Z,12.18
2019-03-28T02:21:59.366Z,12.15
2019-03-28T02:22:34.833Z,13.55
2019-03-28T02:23:10.318Z,12.53
2019-03-28T02:23:45.012Z,12.15
2019-03-28T02:24:19.576Z,12.10
2019-03-28T02:24:54.077Z,12.07
2019-03-28T02:25:28.596Z,11.80
2019-03-28T02:26:03.113Z,13.58
2019-03-28T02:26:37.786Z,14.35
2019-03-28T02:27:23.376Z,13.43
2019-03-28T02:27:48.529Z,12.82
2019-03-28T02:28:23.114Z,12.73
2019-03-28T02:28:57.685Z,11.73
2019-03-28T02:29:33.153Z,13.43
2019-03-28T02:30:08.684Z,12.37
2019-03-28T02:30:43.254Z,14.50
2019-03-28T02:31:17.885Z,12.33
2019-03-28T02:31:52.461Z,13.15
2019-03-28T02:32:26.968Z,12.90
2019-03-28T02:33:01.821Z,14.00
2019-03-28T02:33:36.412Z,12.58
2019-03-28T02:34:11.008Z,13.13
2019-03-28T02:34:48.781Z,14.13
2019-03-28T02:35:21.716Z,14.33
2019-03-28T02:35:56.264Z,13.68
2019-03-28T02:36:30.806Z,14.10
2019-03-28T02:37:05.402Z,13.20
2019-03-28T02:37:40.077Z,13.38
2019-03-28T02:38:14.642Z,12.65
2019-03-28T02:38:49.157Z,13.05
2019-03-28T02:39:24.434Z,11.85
2019-03-28T02:39:59.472Z,12.23
2019-03-28T02:40:34.111Z,12.00
2019-03-28T02:41:08.800Z,12.85
2019-03-28T02:41:43.650Z,12.65
2019-03-28T02:42:18.223Z,13.80
2019-03-28T02:42:53.417Z,14.85
2019-03-28T02:43:28.092Z,12.58
2019-03-28T02:44:02.596Z,13.28
2019-03-28T02:44:37.621Z,13.50
2019-03-28T02:45:12.650Z,14.43
2019-03-28T02:45:47.156Z,14.03
2019-03-28T02:46:22.605Z,14.23
2019-03-28T02:46:57.414Z,14.18
2019-03-28T02:47:31.958Z,13.28
2019-03-28T02:48:06.809Z,13.25
2019-03-28T02:48:41.393Z,13.25
2019-03-28T02:49:15.980Z,13.58
2019-03-28T02:49:50.841Z,14.50
2019-03-28T02:50:25.346Z,14.03
2019-03-28T02:50:59.865Z,14.28
2019-03-28T02:51:34.438Z,13.20
2019-03-28T02:52:09.100Z,13.22
2019-03-28T02:52:43.605Z,13.13
2019-03-28T02:53:18.126Z,13.48
2019-03-28T02:53:52.701Z,12.78
2019-03-28T02:54:27.210Z,13.55
2019-03-28T02:55:01.800Z,13.45
2019-03-28T02:55:36.318Z,15.05
2019-03-28T02:56:10.885Z,13.55
2019-03-28T02:56:45.394Z,13.80
2019-03-28T02:57:19.917Z,13.95
2019-03-28T02:57:54.454Z,13.28
2019-03-28T02:58:28.974Z,14.83
2019-03-28T02:59:03.472Z,13.98
2019-03-28T02:59:37.989Z,12.85
2019-03-28T03:00:12.905Z,13.78
2019-03-28T03:00:48.082Z,13.70
2019-03-28T03:01:23.054Z,13.58
2019-03-28T03:01:57.565Z,14.70
2019-03-28T03:02:32.453Z,13.88
2019-03-28T03:03:07.245Z,13.30
2019-03-28T03:03:42.143Z,12.73
2019-03-28T03:04:16.778Z,11.83
2019-03-28T03:04:51.373Z,12.45
2019-03-28T03:05:26.119Z,13.48
2019-03-28T03:06:00.615Z,14.13
2019-03-28T03:06:35.124Z,14.05
2019-03-28T03:07:09.849Z,13.05
2019-03-28T03:07:44.452Z,13.93
2019-03-28T03:08:19.063Z,13.25
2019-03-28T03:08:53.568Z,12.50
2019-03-28T03:09:28.147Z,14.10
2019-03-28T03:10:03.206Z,13.38
2019-03-28T03:10:37.781Z,13.62
2019-03-28T03:11:12.284Z,12.07
2019-03-28T03:11:46.787Z,14.20
2019-03-28T03:12:21.759Z,13.35
2019-03-28T03:12:56.256Z,13.58
2019-03-28T03:13:30.752Z,14.83
2019-03-28T03:14:05.336Z,14.80
2019-03-28T03:14:39.926Z,13.70
2019-03-28T03:15:14.972Z,14.03
2019-03-28T03:15:49.541Z,14.45
2019-03-28T03:16:24.059Z,14.15
2019-03-28T03:16:58.704Z,14.05
2019-03-28T03:17:33.528Z,13.45
2019-03-28T03:18:08.115Z,13.43
2019-03-28T03:18:42.710Z,12.80
2019-03-28T03:19:17.595Z,14.70
2019-03-28T03:19:52.101Z,13.50
2019-03-28T03:20:28.071Z,13.48
2019-03-28T03:21:02.688Z,15.53
2019-03-28T03:21:37.193Z,12.35
2019-03-28T03:22:11.692Z,13.50
2019-03-28T03:22:46.192Z,14.53
2019-03-28T03:23:20.992Z,15.03
2019-03-28T03:23:55.571Z,13.90
2019-03-28T03:24:30.156Z,12.90
2019-03-28T03:25:06.682Z,14.33
2019-03-28T03:25:41.345Z,14.05
2019-03-28T03:26:16.012Z,13.70
2019-03-28T03:26:50.579Z,14.05
2019-03-28T03:27:25.096Z,13.75
2019-03-28T03:27:59.662Z,13.40
2019-03-28T03:28:34.169Z,13.95
2019-03-28T03:29:08.667Z,13.62
2019-03-28T03:29:43.256Z,13.90
2019-03-28T03:30:18.014Z,15.15
2019-03-28T03:30:52.602Z,12.70
2019-03-28T03:31:27.161Z,14.25
2019-03-28T03:32:01.697Z,13.30
2019-03-28T03:32:36.491Z,13.75
2019-03-28T03:33:11.091Z,13.85
2019-03-28T03:33:45.774Z,13.78
2019-03-28T03:34:20.365Z,14.40
2019-03-28T03:34:54.952Z,14.68
2019-03-28T03:35:29.496Z,13.25
2019-03-28T03:36:04.004Z,13.98
2019-03-28T03:36:38.590Z,14.20
2019-03-28T03:37:13.096Z,14.95
2019-03-28T03:37:47.611Z,14.13
2019-03-28T03:38:22.257Z,14.58
2019-03-28T03:38:56.753Z,14.95
2019-03-28T03:39:31.355Z,14.07
2019-03-28T03:40:15.598Z,13.93
2019-03-28T03:40:54.883Z,14.53
2019-03-28T03:41:29.898Z,14.40
2019-03-28T03:42:05.070Z,14.83
2019-03-28T03:42:39.574Z,14.58
2019-03-28T03:43:14.176Z,13.75
2019-03-28T03:43:49.689Z,16.23
2019-03-28T03:44:24.385Z,15.15
2019-03-28T03:44:59.439Z,14.00
2019-03-28T03:45:34.073Z,12.78
2019-03-28T03:46:08.614Z,14.45
2019-03-28T03:46:43.312Z,14.63
2019-03-28T03:47:17.881Z,15.72
2019-03-28T03:47:52.746Z,13.75
2019-03-28T03:48:27.279Z,13.62
2019-03-28T03:49:01.900Z,14.68
2019-03-28T03:49:36.444Z,14.55
2019-03-28T03:50:12.686Z,13.70
2019-03-28T03:50:47.191Z,14.28
2019-03-28T03:51:21.772Z,14.93
2019-03-28T03:51:56.350Z,14.58
2019-03-28T03:52:31.237Z,13.80
2019-03-28T03:53:05.792Z,13.43
2019-03-28T03:53:40.412Z,14.65
2019-03-28T03:54:14.934Z,14.68
2019-03-28T03:54:49.527Z,14.33
2019-03-28T03:55:24.097Z,14.73
2019-03-28T03:55:58.669Z,13.98
2019-03-28T03:56:33.191Z,14.35
2019-03-28T03:57:07.817Z,15.45
2019-03-28T03:57:42.315Z,16.57
2019-03-28T03:58:18.642Z,14.25
2019-03-28T03:58:53.624Z,15.48
2019-03-28T03:59:28.148Z,15.35
2019-03-28T04:00:03.588Z,14.85
2019-03-28T04:00:38.334Z,15.45
2019-03-28T04:01:12.911Z,13.90
2019-03-28T04:01:47.412Z,15.75
2019-03-28T04:02:21.913Z,14.90
2019-03-28T04:02:56.411Z,15.00
2019-03-28T04:03:30.925Z,16.10
2019-03-28T04:04:05.730Z,15.40
2019-03-28T04:04:40.306Z,13.70
2019-03-28T04:05:14.809Z,16.05
2019-03-28T04:05:49.305Z,13.93
2019-03-28T04:06:23.815Z,13.95
2019-03-28T04:06:58.382Z,13.72
2019-03-28T04:07:32.882Z,14.53
2019-03-28T04:08:07.391Z,14.10
2019-03-28T04:08:41.950Z,14.25
2019-03-28T04:09:16.455Z,15.28
2019-03-28T04:09:50.947Z,14.70
2019-03-28T04:10:25.450Z,14.95
2019-03-28T04:10:59.961Z,14.33
2019-03-28T04:11:34.564Z,15.63
2019-03-28T04:12:10.111Z,14.95
2019-03-28T04:12:46.411Z,14.98
2019-03-28T04:13:21.004Z,14.73
2019-03-28T04:13:55.576Z,16.73
2019-03-28T04:14:30.079Z,13.18
2019-03-28T04:15:05.320Z,14.55
2019-03-28T04:15:39.820Z,15.88
2019-03-28T04:16:14.557Z,16.95
2019-03-28T04:16:49.130Z,15.08
2019-03-28T04:17:23.633Z,14.38
2019-03-28T04:17:58.128Z,15.15
2019-03-28T04:18:32.630Z,13.90
2019-03-28T04:19:07.194Z,16.50
2019-03-28T04:19:41.773Z,16.32
2019-03-28T04:20:16.291Z,16.75
2019-03-28T04:20:51.643Z,14.23
2019-03-28T04:21:26.402Z,15.23
2019-03-28T04:22:01.059Z,16.10
2019-03-28T04:22:36.973Z,14.38
2019-03-28T04:23:12.012Z,16.25
2019-03-28T04:23:46.641Z,16.80
2019-03-28T04:24:21.823Z,15.03
2019-03-28T04:24:56.579Z,14.68
2019-03-28T04:25:31.176Z,15.05
2019-03-28T04:26:06.044Z,14.83
2019-03-28T04:26:40.884Z,15.32
2019-03-28T04:27:15.461Z,16.45
2019-03-28T04:27:50.051Z,15.93
2019-03-28T04:28:31.607Z,18.27
2019-03-28T04:29:00.767Z,14.05
2019-03-28T04:29:35.268Z,15.88
2019-03-28T04:30:09.837Z,17.42
2019-03-28T04:30:44.336Z,14.98
2019-03-28T04:31:18.849Z,14.28
2019-03-28T04:31:53.421Z,15.38
2019-03-28T04:32:27.927Z,14.53
2019-03-28T04:33:02.530Z,17.70
2019-03-28T04:33:37.122Z,14.43
2019-03-28T04:34:11.662Z,15.15
2019-03-28T04:34:46.212Z,15.20
2019-03-28T04:35:20.810Z,14.85
2019-03-28T04:35:55.373Z,17.70
2019-03-28T04:36:29.943Z,16.87
2019-03-28T04:37:04.513Z,14.90
2019-03-28T04:37:39.048Z,17.48
2019-03-28T04:38:13.551Z,14.83
2019-03-28T04:38:48.095Z,15.72
2019-03-28T04:39:22.643Z,17.10
2019-03-28T04:39:57.143Z,17.35
2019-03-28T04:40:31.726Z,14.65
2019-03-28T04:41:06.221Z,16.10
2019-03-28T04:41:40.825Z,16.37
2019-03-28T04:42:15.397Z,15.03
2019-03-28T04:42:49.901Z,16.52
2019-03-28T04:43:25.547Z,16.12
2019-03-28T04:44:19.756Z,16.00
2019-03-28T04:44:54.258Z,14.63
2019-03-28T04:45:28.871Z,14.83
2019-03-28T04:46:03.454Z,17.17
2019-03-28T04:46:38.024Z,15.05
2019-03-28T04:47:12.521Z,15.53
2019-03-28T04:47:47.028Z,16.42
2019-03-28T04:48:21.560Z,14.18
2019-03-28T04:48:56.139Z,16.48
2019-03-28T04:49:30.636Z,16.95
2019-03-28T04:50:06.813Z,16.30
2019-03-28T04:50:41.400Z,16.90
2019-03-28T04:51:15.972Z,16.55
2019-03-28T04:51:50.613Z,15.28
2019-03-28T04:52:25.116Z,16.05
2019-03-28T04:52:59.670Z,16.65
2019-03-28T04:53:34.213Z,15.28
2019-03-28T04:54:09.947Z,15.55
2019-03-28T04:54:44.662Z,16.62
2019-03-28T04:55:19.162Z,16.40
2019-03-28T04:55:53.686Z,16.97
2019-03-28T04:56:28.256Z,14.93
2019-03-28T04:57:03.172Z,16.23
2019-03-28T04:57:40.773Z,17.05
2019-03-28T04:58:13.956Z,16.67
2019-03-28T04:58:49.346Z,16.12
2019-03-28T04:59:24.074Z,14.87
2019-03-28T04:59:58.573Z,16.35
2019-03-28T05:00:33.378Z,17.95
2019-03-28T05:01:08.137Z,16.05
2019-03-28T05:01:42.639Z,18.10
2019-03-28T05:02:17.420Z,18.45
2019-03-28T05:02:51.982Z,16.25
2019-03-28T05:03:26.492Z,17.95
2019-03-28T05:04:00.998Z,17.05
2019-03-28T05:04:35.593Z,16.80
2019-03-28T05:05:10.156Z,15.85
2019-03-28T05:05:44.668Z,14.98
2019-03-28T05:06:19.336Z,15.93
2019-03-28T05:06:54.166Z,17.35
2019-03-28T05:07:29.594Z,18.05
2019-03-28T05:08:04.108Z,16.70
2019-03-28T05:08:39.361Z,16.85
2019-03-28T05:09:13.945Z,16.02
2019-03-28T05:09:50.312Z,17.05
2019-03-28T05:10:25.028Z,16.73
2019-03-28T05:10:59.564Z,16.82
2019-03-28T05:11:34.211Z,16.40
2019-03-28T05:12:08.787Z,16.40
2019-03-28T05:12:43.298Z,15.80
2019-03-28T05:13:17.792Z,16.17
2019-03-28T05:13:52.302Z,16.97
2019-03-28T05:14:26.878Z,17.23
2019-03-28T05:15:01.380Z,15.90
2019-03-28T05:15:41.790Z,17.02
2019-03-28T05:16:16.330Z,15.65
2019-03-28T05:16:51.000Z,16.85
2019-03-28T05:17:25.586Z,15.30
2019-03-28T05:18:00.137Z,15.40
2019-03-28T05:18:34.694Z,16.42
2019-03-28T05:19:09.276Z,15.55
2019-03-28T05:19:43.795Z,15.43
2019-03-28T05:20:18.310Z,15.83
2019-03-28T05:20:55.817Z,16.15
2019-03-28T05:21:30.340Z,15.25
2019-03-28T05:22:05.175Z,15.50
2019-03-28T05:22:39.691Z,16.05
2019-03-28T05:23:14.537Z,16.65
2019-03-28T05:23:49.111Z,17.15
2019-03-28T05:24:25.465Z,16.37
2019-03-28T05:25:00.311Z,14.33
2019-03-28T05:25:35.049Z,14.10
2019-03-28T05:26:09.555Z,15.48
2019-03-28T05:26:44.058Z,13.95
2019-03-28T05:27:18.634Z,15.40
2019-03-28T05:27:53.264Z,16.15
2019-03-28T05:28:27.766Z,15.48
2019-03-28T05:29:02.307Z,13.93
2019-03-28T05:29:36.872Z,14.45
2019-03-28T05:30:11.812Z,15.65
2019-03-28T05:30:46.319Z,16.17
2019-03-28T05:31:20.822Z,16.40
2019-03-28T05:31:55.349Z,15.28
2019-03-28T05:32:29.906Z,17.27
2019-03-28T05:33:04.482Z,16.20
2019-03-28T05:33:39.656Z,16.30
2019-03-28T05:34:14.276Z,17.42
2019-03-28T05:34:48.777Z,15.32
2019-03-28T05:35:23.336Z,16.20
2019-03-28T05:35:57.847Z,15.90
2019-03-28T05:36:32.361Z,14.95
2019-03-28T05:37:06.916Z,15.45
2019-03-28T05:37:41.421Z,15.45
2019-03-28T05:38:16.216Z,15.58
2019-03-28T05:38:50.721Z,16.75
2019-03-28T05:39:25.257Z,16.35
2019-03-28T05:39:59.769Z,16.25
2019-03-28T05:40:34.281Z,15.25
2019-03-28T05:41:08.891Z,15.38
2019-03-28T05:41:43.502Z,15.25
2019-03-28T05:42:18.016Z,15.40
2019-03-28T05:42:52.709Z,15.00
2019-03-28T05:43:27.288Z,15.70
2019-03-28T05:44:01.801Z,15.60
2019-03-28T05:44:36.357Z,15.78
2019-03-28T05:45:10.961Z,16.30
2019-03-28T05:45:47.578Z,14.75
2019-03-28T05:46:21.665Z,15.63
2019-03-28T05:46:56.177Z,16.32
2019-03-28T05:47:30.745Z,16.65
2019-03-28T05:48:05.247Z,16.23
2019-03-28T05:48:39.813Z,16.23
2019-03-28T05:49:14.546Z,15.93
2019-03-28T05:49:49.093Z,15.23
2019-03-28T05:50:23.608Z,15.63
2019-03-28T05:50:58.294Z,15.68
2019-03-28T05:51:32.980Z,16.45
2019-03-28T05:52:07.480Z,16.40
2019-03-28T05:52:42.209Z,14.98
2019-03-28T05:53:16.866Z,17.20
2019-03-28T05:53:51.376Z,16.57
2019-03-28T05:54:25.949Z,16.93
2019-03-28T05:55:00.454Z,16.15
2019-03-28T05:55:36.216Z,16.75
2019-03-28T05:56:10.774Z,16.25
2019-03-28T05:56:45.727Z,15.08
2019-03-28T05:57:20.226Z,15.40
2019-03-28T05:57:54.827Z,15.20
2019-03-28T05:58:29.329Z,16.93
2019-03-28T05:59:10.808Z,16.87
2019-03-28T05:59:40.082Z,15.50
2019-03-28T06:00:16.608Z,16.20
2019-03-28T06:00:51.493Z,16.20
2019-03-28T06:01:26.133Z,15.40
2019-03-28T06:02:00.722Z,16.40
2019-03-28T06:02:35.262Z,16.27
2019-03-28T06:03:09.864Z,15.40
2019-03-28T06:03:44.417Z,16.02
2019-03-28T06:04:18.943Z,15.18
2019-03-28T06:04:53.527Z,16.17
2019-03-28T06:05:28.080Z,17.20
2019-03-28T06:06:03.322Z,16.82
2019-03-28T06:06:37.938Z,16.23
2019-03-28T06:07:12.533Z,15.98
2019-03-28T06:07:47.206Z,17.20
2019-03-28T06:08:21.804Z,15.83
2019-03-28T06:08:56.382Z,17.07
2019-03-28T06:09:31.003Z,16.70
2019-03-28T06:10:07.875Z,17.85
2019-03-28T06:10:42.403Z,15.88
2019-03-28T06:11:17.137Z,16.50
2019-03-28T06:11:52.953Z,18.02
2019-03-28T06:12:27.719Z,16.42
2019-03-28T06:13:02.245Z,17.62
2019-03-28T06:13:36.751Z,16.60
2019-03-28T06:14:11.262Z,17.27
2019-03-28T06:14:45.759Z,16.45
2019-03-28T06:15:20.277Z,16.65
2019-03-28T06:15:54.777Z,17.17
2019-03-28T06:16:29.295Z,15.90
2019-03-28T06:17:03.804Z,16.02
2019-03-28T06:17:38.309Z,16.00
2019-03-28T06:18:12.841Z,16.70
2019-03-28T06:18:47.392Z,16.73
2019-03-28T06:19:21.906Z,17.65
2019-03-28T06:19:56.405Z,14.45
2019-03-28T06:20:31.001Z,15.72
2019-03-28T06:21:05.588Z,17.87
2019-03-28T06:21:40.094Z,16.23
2019-03-28T06:22:14.661Z,16.85
2019-03-28T06:22:49.168Z,15.15
2019-03-28T06:23:23.665Z,15.83
2019-03-28T06:23:58.284Z,15.58
2019-03-28T06:24:32.891Z,15.63
2019-03-28T06:25:08.217Z,14.30
2019-03-28T06:25:42.756Z,15.78
2019-03-28T06:26:17.323Z,15.85
2019-03-28T06:26:51.905Z,15.60
2019-03-28T06:27:26.478Z,14.90
2019-03-28T06:28:01.058Z,16.65
2019-03-28T06:28:35.641Z,17.02
2019-03-28T06:29:22.890Z,15.75
2019-03-28T06:29:46.361Z,15.70
2019-03-28T06:30:21.126Z,15.25
2019-03-28T06:30:56.040Z,17.00
2019-03-28T06:31:31.029Z,16.90
2019-03-28T06:32:05.525Z,16.62
2019-03-28T06:32:43.317Z,15.15
2019-03-28T06:33:16.243Z,16.95
2019-03-28T06:33:50.757Z,16.27
2019-03-28T06:34:25.371Z,17.67
2019-03-28T06:35:00.493Z,16.17
2019-03-28T06:35:35.043Z,16.35
2019-03-28T06:36:09.571Z,15.30
2019-03-28T06:36:44.092Z,16.35
2019-03-28T06:37:18.657Z,16.40
2019-03-28T06:37:53.184Z,15.18
2019-03-28T06:38:27.802Z,15.58
2019-03-28T06:39:02.345Z,16.17
2019-03-28T06:39:36.860Z,15.65
2019-03-28T06:40:11.762Z,15.00
2019-03-28T06:40:46.328Z,15.65
2019-03-28T06:41:20.941Z,16.62
2019-03-28T06:41:55.448Z,14.05
2019-03-28T06:42:31.504Z,15.88
2019-03-28T06:43:06.044Z,16.20
2019-03-28T06:43:42.097Z,16.52
2019-03-28T06:44:16.795Z,17.23
2019-03-28T06:44:52.293Z,17.75
2019-03-28T06:45:26.884Z,16.27
2019-03-28T06:46:01.464Z,15.63
2019-03-28T06:46:36.040Z,15.35
2019-03-28T06:47:10.656Z,14.63
2019-03-28T06:47:45.167Z,15.15
2019-03-28T06:48:19.673Z,14.40
2019-03-28T06:48:54.174Z,14.85
2019-03-28T06:49:28.678Z,15.88
2019-03-28T06:50:04.154Z,14.58
2019-03-28T06:50:38.730Z,14.00
2019-03-28T06:51:13.234Z,15.80
2019-03-28T06:51:47.753Z,14.85
2019-03-28T06:52:22.327Z,16.65
2019-03-28T06:52:56.915Z,14.95
2019-03-28T06:53:31.484Z,13.50
2019-03-28T06:54:05.991Z,15.05
2019-03-28T06:54:40.497Z,15.43
2019-03-28T06:55:15.090Z,15.13
2019-03-28T06:55:49.585Z,14.93
2019-03-28T06:56:25.426Z,16.42
2019-03-28T06:57:00.282Z,16.57
2019-03-28T06:57:34.790Z,15.05
2019-03-28T06:58:09.330Z,15.55
2019-03-28T06:58:43.942Z,16.05
2019-03-28T06:59:18.498Z,15.72
2019-03-28T06:59:53.007Z,17.45
2019-03-28T07:00:27.488Z,15.70
2019-03-28T07:01:02.026Z,16.20
2019-03-28T07:01:36.873Z,16.42
2019-03-28T07:02:11.380Z,14.85
2019-03-28T07:02:46.043Z,15.85
2019-03-28T07:03:20.567Z,15.80
2019-03-28T07:03:55.125Z,16.07
2019-03-28T07:04:30.240Z,15.58
2019-03-28T07:05:05.740Z,17.90
2019-03-28T07:05:40.324Z,16.65
2019-03-28T07:06:14.822Z,14.43
2019-03-28T07:06:49.346Z,14.65
2019-03-28T07:07:23.920Z,16.57
2019-03-28T07:07:58.556Z,16.65
2019-03-28T07:08:33.235Z,14.85
2019-03-28T07:09:08.842Z,15.80
2019-03-28T07:09:44.250Z,15.35
2019-03-28T07:10:19.118Z,15.90
2019-03-28T07:10:53.619Z,14.95
2019-03-28T07:11:31.765Z,16.20
2019-03-28T07:12:06.266Z,15.80
2019-03-28T07:12:40.907Z,15.75
2019-03-28T07:13:15.488Z,15.55
2019-03-28T07:13:49.992Z,17.23
2019-03-28T07:14:24.489Z,20.43
2019-03-28T07:14:59.733Z,21.12
2019-03-28T07:15:36.764Z,17.77
2019-03-28T07:16:10.569Z,16.95
2019-03-28T07:16:45.079Z,17.52
2019-03-28T07:17:19.756Z,17.12
2019-03-28T07:17:54.296Z,17.27
2019-03-28T07:18:28.843Z,17.20
2019-03-28T07:19:03.349Z,16.35
2019-03-28T07:19:37.860Z,16.30
2019-03-28T07:20:12.712Z,17.80
2019-03-28T07:20:47.291Z,18.65
2019-03-28T07:21:21.897Z,17.80
2019-03-28T07:21:56.392Z,18.57
2019-03-28T07:22:31.185Z,17.20
2019-03-28T07:23:05.740Z,17.00
2019-03-28T07:23:40.255Z,17.30
2019-03-28T07:24:14.850Z,16.55
2019-03-28T07:24:49.360Z,17.15
2019-03-28T07:25:25.578Z,18.00
2019-03-28T07:26:00.364Z,18.60
2019-03-28T07:26:34.889Z,16.30
2019-03-28T07:27:09.387Z,18.15
2019-03-28T07:27:43.882Z,20.20